sensor_id;sensor_type;location;lat;lon;timestamp;P1;durP1;ratioP1;P2;durP2;ratioP2
38023;SDS011;23834;48.080;11.682;2022-09-01T00:01:12;3.53;;;3.33;;
38023;SDS011;23834;48.080;11.682;2022-09-01T00:03:42;3.80;;;3.50;;
38023;SDS011;23834;48.080;11.682;2022-09-01T00:06:12;4.00;;;3.70;;
38023;SDS011;23834;48.080;11.682;2022-09-01T00:08:37;3.73;;;3.53;;
38023;SDS011;23834;48.080;11.682;2022-09-01T00:11:02;4.00;;;3.70;;
38023;SDS011;23834;48.080;11.682;2022-09-01T00:13:28;3.80;;;3.50;;
38023;SDS011;23834;48.080;11.682;2022-09-01T00:15:57;3.67;;;3.37;;
38023;SDS011;23834;48.080;11.682;2022-09-01T00:18:23;3.70;;;3.40;;
38023;SDS011;23834;48.080;11.682;2022-09-01T00:20:48;3.87;;;3.67;;
38023;SDS011;23834;48.080;11.682;2022-09-01T00:23:13;3.83;;;3.63;;
38023;SDS011;23834;48.080;11.682;2022-09-01T00:25:38;3.63;;;3.40;;
38023;SDS011;23834;48.080;11.682;2022-09-01T00:28:04;3.60;;;3.40;;
38023;SDS011;23834;48.080;11.682;2022-09-01T00:30:29;3.57;;;3.37;;
38023;SDS011;23834;48.080;11.682;2022-09-01T00:32:54;4.20;;;3.90;;
38023;SDS011;23834;48.080;11.682;2022-09-01T00:35:19;3.83;;;3.53;;
38023;SDS011;23834;48.080;11.682;2022-09-01T00:37:45;3.77;;;3.57;;
38023;SDS011;23834;48.080;11.682;2022-09-01T00:40:10;4.03;;;3.83;;
38023;SDS011;23834;48.080;11.682;2022-09-01T00:42:37;3.83;;;3.53;;
38023;SDS011;23834;48.080;11.682;2022-09-01T00:45:04;3.50;;;3.27;;
38023;SDS011;23834;48.080;11.682;2022-09-01T00:47:29;3.60;;;3.40;;
38023;SDS011;23834;48.080;11.682;2022-09-01T00:49:55;3.77;;;3.53;;
38023;SDS011;23834;48.080;11.682;2022-09-01T00:52:40;4.10;;;3.80;;
38023;SDS011;23834;48.080;11.682;2022-09-01T00:55:11;4.00;;;3.63;;
38023;SDS011;23834;48.080;11.682;2022-09-01T00:57:37;3.77;;;3.50;;
38023;SDS011;23834;48.080;11.682;2022-09-01T01:00:08;4.10;;;3.80;;
38023;SDS011;23834;48.080;11.682;2022-09-01T01:02:35;3.83;;;3.53;;
38023;SDS011;23834;48.080;11.682;2022-09-01T01:05:03;3.90;;;3.67;;
38023;SDS011;23834;48.080;11.682;2022-09-01T01:07:28;3.70;;;3.47;;
38023;SDS011;23834;48.080;11.682;2022-09-01T01:09:53;3.97;;;3.67;;
38023;SDS011;23834;48.080;11.682;2022-09-01T01:12:19;3.73;;;3.43;;
38023;SDS011;23834;48.080;11.682;2022-09-01T01:14:45;4.30;;;4.00;;
38023;SDS011;23834;48.080;11.682;2022-09-01T01:17:14;3.50;;;3.30;;
38023;SDS011;23834;48.080;11.682;2022-09-01T01:19:43;3.83;;;3.63;;
38023;SDS011;23834;48.080;11.682;2022-09-01T01:22:30;3.67;;;3.47;;
38023;SDS011;23834;48.080;11.682;2022-09-01T01:25:17;4.10;;;3.80;;
38023;SDS011;23834;48.080;11.682;2022-09-01T01:27:43;4.00;;;3.70;;
38023;SDS011;23834;48.080;11.682;2022-09-01T01:30:08;4.00;;;3.70;;
38023;SDS011;23834;48.080;11.682;2022-09-01T01:32:35;3.90;;;3.70;;
38023;SDS011;23834;48.080;11.682;2022-09-01T01:35:01;4.00;;;3.70;;
38023;SDS011;23834;48.080;11.682;2022-09-01T01:37:29;4.00;;;3.80;;
38023;SDS011;23834;48.080;11.682;2022-09-01T01:39:55;3.70;;;3.50;;
38023;SDS011;23834;48.080;11.682;2022-09-01T01:42:20;4.17;;;3.87;;
38023;SDS011;23834;48.080;11.682;2022-09-01T01:44:48;4.53;;;4.23;;
38023;SDS011;23834;48.080;11.682;2022-09-01T01:47:13;4.40;;;4.10;;
38023;SDS011;23834;48.080;11.682;2022-09-01T01:49:41;4.30;;;4.00;;
38023;SDS011;23834;48.080;11.682;2022-09-01T01:52:10;4.00;;;3.70;;
38023;SDS011;23834;48.080;11.682;2022-09-01T01:54:38;4.40;;;4.10;;
38023;SDS011;23834;48.080;11.682;2022-09-01T01:57:04;4.10;;;3.80;;
38023;SDS011;23834;48.080;11.682;2022-09-01T01:59:29;4.57;;;4.27;;
38023;SDS011;23834;48.080;11.682;2022-09-01T02:01:55;4.03;;;3.73;;
38023;SDS011;23834;48.080;11.682;2022-09-01T02:04:20;4.07;;;3.77;;
38023;SDS011;23834;48.080;11.682;2022-09-01T02:06:47;4.57;;;4.17;;
38023;SDS011;23834;48.080;11.682;2022-09-01T02:09:13;4.30;;;4.00;;
38023;SDS011;23834;48.080;11.682;2022-09-01T02:11:39;4.30;;;4.00;;
38023;SDS011;23834;48.080;11.682;2022-09-01T02:14:05;3.93;;;3.63;;
38023;SDS011;23834;48.080;11.682;2022-09-01T02:16:31;4.50;;;4.20;;
38023;SDS011;23834;48.080;11.682;2022-09-01T02:18:56;4.40;;;4.10;;
38023;SDS011;23834;48.080;11.682;2022-09-01T02:21:22;4.00;;;3.80;;
38023;SDS011;23834;48.080;11.682;2022-09-01T02:23:52;4.47;;;4.17;;
38023;SDS011;23834;48.080;11.682;2022-09-01T02:26:28;4.03;;;3.77;;
38023;SDS011;23834;48.080;11.682;2022-09-01T02:28:56;4.27;;;3.97;;
38023;SDS011;23834;48.080;11.682;2022-09-01T02:31:22;4.00;;;3.70;;
38023;SDS011;23834;48.080;11.682;2022-09-01T02:33:47;4.03;;;3.73;;
38023;SDS011;23834;48.080;11.682;2022-09-01T02:36:14;4.60;;;4.30;;
38023;SDS011;23834;48.080;11.682;2022-09-01T02:38:40;5.03;;;4.63;;
38023;SDS011;23834;48.080;11.682;2022-09-01T02:41:10;4.50;;;4.20;;
38023;SDS011;23834;48.080;11.682;2022-09-01T02:43:37;4.50;;;4.20;;
38023;SDS011;23834;48.080;11.682;2022-09-01T02:46:04;4.30;;;4.00;;
38023;SDS011;23834;48.080;11.682;2022-09-01T02:48:34;4.00;;;3.70;;
38023;SDS011;23834;48.080;11.682;2022-09-01T02:51:17;4.23;;;3.97;;
38023;SDS011;23834;48.080;11.682;2022-09-01T02:53:43;4.60;;;4.30;;
38023;SDS011;23834;48.080;11.682;2022-09-01T02:56:10;4.40;;;4.10;;
38023;SDS011;23834;48.080;11.682;2022-09-01T02:58:39;4.40;;;4.10;;
38023;SDS011;23834;48.080;11.682;2022-09-01T03:01:11;4.30;;;4.00;;
38023;SDS011;23834;48.080;11.682;2022-09-01T03:03:36;4.73;;;4.40;;
38023;SDS011;23834;48.080;11.682;2022-09-01T03:06:02;4.47;;;4.10;;
38023;SDS011;23834;48.080;11.682;2022-09-01T03:08:27;4.20;;;3.90;;
38023;SDS011;23834;48.080;11.682;2022-09-01T03:10:52;4.50;;;4.10;;
38023;SDS011;23834;48.080;11.682;2022-09-01T03:13:21;4.83;;;4.43;;
38023;SDS011;23834;48.080;11.682;2022-09-01T03:15:47;4.23;;;3.97;;
38023;SDS011;23834;48.080;11.682;2022-09-01T03:18:14;4.60;;;4.30;;
38023;SDS011;23834;48.080;11.682;2022-09-01T03:20:40;4.10;;;3.80;;
38023;SDS011;23834;48.080;11.682;2022-09-01T03:23:08;4.50;;;4.20;;
38023;SDS011;23834;48.080;11.682;2022-09-01T03:25:34;4.40;;;4.10;;
38023;SDS011;23834;48.080;11.682;2022-09-01T03:28:01;4.77;;;4.37;;
38023;SDS011;23834;48.080;11.682;2022-09-01T03:30:30;4.10;;;3.80;;
38023;SDS011;23834;48.080;11.682;2022-09-01T03:32:56;4.07;;;3.77;;
38023;SDS011;23834;48.080;11.682;2022-09-01T03:35:21;4.30;;;3.90;;
38023;SDS011;23834;48.080;11.682;2022-09-01T03:37:47;4.40;;;4.07;;
38023;SDS011;23834;48.080;11.682;2022-09-01T03:40:12;4.67;;;4.37;;
38023;SDS011;23834;48.080;11.682;2022-09-01T03:42:37;4.53;;;4.13;;
38023;SDS011;23834;48.080;11.682;2022-09-01T03:45:04;4.17;;;3.87;;
38023;SDS011;23834;48.080;11.682;2022-09-01T03:47:33;4.20;;;3.93;;
38023;SDS011;23834;48.080;11.682;2022-09-01T03:50:00;4.30;;;4.00;;
38023;SDS011;23834;48.080;11.682;2022-09-01T03:52:25;4.63;;;4.23;;
38023;SDS011;23834;48.080;11.682;2022-09-01T03:54:51;3.93;;;3.73;;
38023;SDS011;23834;48.080;11.682;2022-09-01T03:57:17;4.10;;;3.80;;
38023;SDS011;23834;48.080;11.682;2022-09-01T03:59:43;4.53;;;4.23;;
38023;SDS011;23834;48.080;11.682;2022-09-01T04:02:09;4.13;;;3.83;;
38023;SDS011;23834;48.080;11.682;2022-09-01T04:04:34;4.43;;;4.13;;
38023;SDS011;23834;48.080;11.682;2022-09-01T04:07:00;4.20;;;3.90;;
38023;SDS011;23834;48.080;11.682;2022-09-01T04:09:25;4.10;;;3.80;;
38023;SDS011;23834;48.080;11.682;2022-09-01T04:11:51;4.20;;;3.90;;
38023;SDS011;23834;48.080;11.682;2022-09-01T04:14:16;4.17;;;3.87;;
38023;SDS011;23834;48.080;11.682;2022-09-01T04:16:42;4.40;;;4.03;;
38023;SDS011;23834;48.080;11.682;2022-09-01T04:19:27;4.27;;;3.97;;
38023;SDS011;23834;48.080;11.682;2022-09-01T04:21:55;4.60;;;4.30;;
38023;SDS011;23834;48.080;11.682;2022-09-01T04:24:21;3.97;;;3.77;;
38023;SDS011;23834;48.080;11.682;2022-09-01T04:26:51;3.67;;;3.47;;
38023;SDS011;23834;48.080;11.682;2022-09-01T04:29:17;4.33;;;4.03;;
38023;SDS011;23834;48.080;11.682;2022-09-01T04:31:43;4.37;;;4.07;;
38023;SDS011;23834;48.080;11.682;2022-09-01T04:34:09;4.23;;;3.93;;
38023;SDS011;23834;48.080;11.682;2022-09-01T04:36:38;4.13;;;3.90;;
38023;SDS011;23834;48.080;11.682;2022-09-01T04:39:05;4.37;;;4.10;;
38023;SDS011;23834;48.080;11.682;2022-09-01T04:41:33;4.50;;;4.20;;
38023;SDS011;23834;48.080;11.682;2022-09-01T04:43:59;4.80;;;4.40;;
38023;SDS011;23834;48.080;11.682;2022-09-01T04:46:28;4.43;;;4.13;;
38023;SDS011;23834;48.080;11.682;2022-09-01T04:48:57;4.47;;;4.17;;
38023;SDS011;23834;48.080;11.682;2022-09-01T04:51:22;5.10;;;4.80;;
38023;SDS011;23834;48.080;11.682;2022-09-01T04:53:52;4.47;;;4.17;;
38023;SDS011;23834;48.080;11.682;2022-09-01T04:56:18;3.77;;;3.57;;
38023;SDS011;23834;48.080;11.682;2022-09-01T04:58:45;5.17;;;4.77;;
38023;SDS011;23834;48.080;11.682;2022-09-01T05:01:21;4.60;;;4.30;;
38023;SDS011;23834;48.080;11.682;2022-09-01T05:03:46;4.80;;;4.50;;
38023;SDS011;23834;48.080;11.682;2022-09-01T05:06:23;4.90;;;4.60;;
38023;SDS011;23834;48.080;11.682;2022-09-01T05:08:48;4.80;;;4.50;;
38023;SDS011;23834;48.080;11.682;2022-09-01T05:11:15;5.00;;;4.70;;
38023;SDS011;23834;48.080;11.682;2022-09-01T05:13:45;4.40;;;4.20;;
38023;SDS011;23834;48.080;11.682;2022-09-01T05:16:12;5.10;;;4.70;;
38023;SDS011;23834;48.080;11.682;2022-09-01T05:18:40;4.67;;;4.37;;
38023;SDS011;23834;48.080;11.682;2022-09-01T05:21:06;4.53;;;4.23;;
38023;SDS011;23834;48.080;11.682;2022-09-01T05:23:33;4.57;;;4.27;;
38023;SDS011;23834;48.080;11.682;2022-09-01T05:26:00;4.73;;;4.43;;
38023;SDS011;23834;48.080;11.682;2022-09-01T05:28:27;5.00;;;4.70;;
38023;SDS011;23834;48.080;11.682;2022-09-01T05:30:52;4.70;;;4.47;;
38023;SDS011;23834;48.080;11.682;2022-09-01T05:33:18;4.60;;;4.30;;
38023;SDS011;23834;48.080;11.682;2022-09-01T05:35:52;4.60;;;4.33;;
38023;SDS011;23834;48.080;11.682;2022-09-01T05:38:19;4.67;;;4.37;;
38023;SDS011;23834;48.080;11.682;2022-09-01T05:40:44;4.80;;;4.50;;
38023;SDS011;23834;48.080;11.682;2022-09-01T05:43:18;4.50;;;4.20;;
38023;SDS011;23834;48.080;11.682;2022-09-01T05:45:44;4.60;;;4.30;;
38023;SDS011;23834;48.080;11.682;2022-09-01T05:48:09;4.83;;;4.53;;
38023;SDS011;23834;48.080;11.682;2022-09-01T05:50:38;4.43;;;4.23;;
38023;SDS011;23834;48.080;11.682;2022-09-01T05:53:06;4.10;;;3.90;;
38023;SDS011;23834;48.080;11.682;2022-09-01T05:55:35;4.50;;;4.20;;
38023;SDS011;23834;48.080;11.682;2022-09-01T05:58:01;4.70;;;4.40;;
38023;SDS011;23834;48.080;11.682;2022-09-01T06:00:29;4.53;;;4.23;;
38023;SDS011;23834;48.080;11.682;2022-09-01T06:02:58;4.80;;;4.50;;
38023;SDS011;23834;48.080;11.682;2022-09-01T06:05:25;5.10;;;4.80;;
38023;SDS011;23834;48.080;11.682;2022-09-01T06:07:50;5.17;;;4.87;;
38023;SDS011;23834;48.080;11.682;2022-09-01T06:10:16;5.17;;;4.80;;
38023;SDS011;23834;48.080;11.682;2022-09-01T06:12:41;4.70;;;4.40;;
38023;SDS011;23834;48.080;11.682;2022-09-01T06:15:09;4.80;;;4.50;;
38023;SDS011;23834;48.080;11.682;2022-09-01T06:17:39;4.87;;;4.57;;
38023;SDS011;23834;48.080;11.682;2022-09-01T06:20:05;4.87;;;4.57;;
38023;SDS011;23834;48.080;11.682;2022-09-01T06:22:35;4.80;;;4.50;;
38023;SDS011;23834;48.080;11.682;2022-09-01T06:25:00;4.87;;;4.47;;
38023;SDS011;23834;48.080;11.682;2022-09-01T06:27:26;4.47;;;4.20;;
38023;SDS011;23834;48.080;11.682;2022-09-01T06:29:51;4.97;;;4.67;;
38023;SDS011;23834;48.080;11.682;2022-09-01T06:32:20;4.93;;;4.63;;
38023;SDS011;23834;48.080;11.682;2022-09-01T06:34:45;4.97;;;4.67;;
38023;SDS011;23834;48.080;11.682;2022-09-01T06:37:14;4.80;;;4.50;;
38023;SDS011;23834;48.080;11.682;2022-09-01T06:39:39;4.77;;;4.47;;
38023;SDS011;23834;48.080;11.682;2022-09-01T06:42:05;5.80;;;5.40;;
38023;SDS011;23834;48.080;11.682;2022-09-01T06:44:30;5.40;;;5.00;;
38023;SDS011;23834;48.080;11.682;2022-09-01T06:46:56;4.80;;;4.50;;
38023;SDS011;23834;48.080;11.682;2022-09-01T06:49:22;5.00;;;4.70;;
38023;SDS011;23834;48.080;11.682;2022-09-01T06:51:56;4.83;;;4.53;;
38023;SDS011;23834;48.080;11.682;2022-09-01T06:54:22;5.03;;;4.73;;
38023;SDS011;23834;48.080;11.682;2022-09-01T06:56:47;4.90;;;4.60;;
38023;SDS011;23834;48.080;11.682;2022-09-01T06:59:12;4.80;;;4.50;;
38023;SDS011;23834;48.080;11.682;2022-09-01T07:01:39;5.60;;;5.20;;
38023;SDS011;23834;48.080;11.682;2022-09-01T07:04:04;4.73;;;4.43;;
38023;SDS011;23834;48.080;11.682;2022-09-01T07:06:30;5.13;;;4.73;;
38023;SDS011;23834;48.080;11.682;2022-09-01T07:08:57;4.90;;;4.60;;
38023;SDS011;23834;48.080;11.682;2022-09-01T07:11:27;5.03;;;4.73;;
38023;SDS011;23834;48.080;11.682;2022-09-01T07:13:54;5.13;;;4.80;;
38023;SDS011;23834;48.080;11.682;2022-09-01T07:16:20;5.03;;;4.73;;
38023;SDS011;23834;48.080;11.682;2022-09-01T07:18:47;5.47;;;5.07;;
38023;SDS011;23834;48.080;11.682;2022-09-01T07:21:12;5.80;;;5.40;;
38023;SDS011;23834;48.080;11.682;2022-09-01T07:23:38;5.57;;;5.17;;
38023;SDS011;23834;48.080;11.682;2022-09-01T07:26:06;5.50;;;5.10;;
38023;SDS011;23834;48.080;11.682;2022-09-01T07:28:32;5.10;;;4.80;;
38023;SDS011;23834;48.080;11.682;2022-09-01T07:30:57;5.63;;;5.10;;
38023;SDS011;23834;48.080;11.682;2022-09-01T07:33:23;4.63;;;4.33;;
38023;SDS011;23834;48.080;11.682;2022-09-01T07:35:49;5.30;;;4.90;;
38023;SDS011;23834;48.080;11.682;2022-09-01T07:38:15;5.27;;;4.83;;
38023;SDS011;23834;48.080;11.682;2022-09-01T07:40:44;5.07;;;4.77;;
38023;SDS011;23834;48.080;11.682;2022-09-01T07:43:19;5.13;;;4.73;;
38023;SDS011;23834;48.080;11.682;2022-09-01T07:45:46;5.20;;;4.90;;
38023;SDS011;23834;48.080;11.682;2022-09-01T07:48:14;5.57;;;5.17;;
38023;SDS011;23834;48.080;11.682;2022-09-01T07:50:44;5.57;;;5.00;;
38023;SDS011;23834;48.080;11.682;2022-09-01T07:53:11;5.40;;;5.00;;
38023;SDS011;23834;48.080;11.682;2022-09-01T07:55:39;4.70;;;4.40;;
38023;SDS011;23834;48.080;11.682;2022-09-01T07:58:05;4.83;;;4.43;;
38023;SDS011;23834;48.080;11.682;2022-09-01T08:00:30;5.27;;;4.77;;
38023;SDS011;23834;48.080;11.682;2022-09-01T08:02:57;4.47;;;4.13;;
38023;SDS011;23834;48.080;11.682;2022-09-01T08:05:22;4.70;;;4.37;;
38023;SDS011;23834;48.080;11.682;2022-09-01T08:07:50;4.80;;;4.40;;
38023;SDS011;23834;48.080;11.682;2022-09-01T08:10:15;4.73;;;4.43;;
38023;SDS011;23834;48.080;11.682;2022-09-01T08:12:41;4.87;;;4.47;;
38023;SDS011;23834;48.080;11.682;2022-09-01T08:15:07;4.93;;;4.63;;
38023;SDS011;23834;48.080;11.682;2022-09-01T08:17:33;5.40;;;5.00;;
38023;SDS011;23834;48.080;11.682;2022-09-01T08:19:58;5.00;;;4.60;;
38023;SDS011;23834;48.080;11.682;2022-09-01T08:22:24;5.10;;;4.70;;
38023;SDS011;23834;48.080;11.682;2022-09-01T08:24:52;5.30;;;4.90;;
38023;SDS011;23834;48.080;11.682;2022-09-01T08:27:18;5.60;;;5.10;;
38023;SDS011;23834;48.080;11.682;2022-09-01T08:29:43;5.23;;;4.73;;
38023;SDS011;23834;48.080;11.682;2022-09-01T08:32:08;4.53;;;4.27;;
38023;SDS011;23834;48.080;11.682;2022-09-01T08:34:35;5.00;;;4.60;;
38023;SDS011;23834;48.080;11.682;2022-09-01T08:37:01;5.20;;;4.80;;
38023;SDS011;23834;48.080;11.682;2022-09-01T08:39:26;5.50;;;5.00;;
38023;SDS011;23834;48.080;11.682;2022-09-01T08:42:01;5.43;;;5.03;;
38023;SDS011;23834;48.080;11.682;2022-09-01T08:44:37;5.23;;;4.90;;
38023;SDS011;23834;48.080;11.682;2022-09-01T08:47:09;4.67;;;4.37;;
38023;SDS011;23834;48.080;11.682;2022-09-01T08:49:34;4.80;;;4.50;;
38023;SDS011;23834;48.080;11.682;2022-09-01T08:54:39;5.23;;;4.73;;
38023;SDS011;23834;48.080;11.682;2022-09-01T08:57:13;5.80;;;4.80;;
38023;SDS011;23834;48.080;11.682;2022-09-01T08:59:40;5.37;;;4.90;;
38023;SDS011;23834;48.080;11.682;2022-09-01T09:10:25;5.40;;;4.90;;
38023;SDS011;23834;48.080;11.682;2022-09-01T09:20:52;5.40;;;5.00;;
38023;SDS011;23834;48.080;11.682;2022-09-01T09:23:29;5.40;;;4.90;;
38023;SDS011;23834;48.080;11.682;2022-09-01T09:25:57;4.90;;;4.60;;
38023;SDS011;23834;48.080;11.682;2022-09-01T09:28:22;5.43;;;4.93;;
38023;SDS011;23834;48.080;11.682;2022-09-01T09:30:47;5.40;;;4.73;;
38023;SDS011;23834;48.080;11.682;2022-09-01T09:35:56;5.27;;;4.97;;
38023;SDS011;23834;48.080;11.682;2022-09-01T09:38:39;4.77;;;4.47;;
38023;SDS011;23834;48.080;11.682;2022-09-01T09:41:20;4.80;;;4.50;;
38023;SDS011;23834;48.080;11.682;2022-09-01T09:43:47;5.43;;;4.97;;
38023;SDS011;23834;48.080;11.682;2022-09-01T09:46:20;5.50;;;5.10;;
38023;SDS011;23834;48.080;11.682;2022-09-01T09:48:47;4.63;;;4.23;;
38023;SDS011;23834;48.080;11.682;2022-09-01T09:51:16;5.00;;;4.63;;
38023;SDS011;23834;48.080;11.682;2022-09-01T09:53:43;5.23;;;4.83;;
38023;SDS011;23834;48.080;11.682;2022-09-01T09:56:16;4.70;;;4.40;;
38023;SDS011;23834;48.080;11.682;2022-09-01T09:58:42;4.93;;;4.63;;
38023;SDS011;23834;48.080;11.682;2022-09-01T10:01:12;4.77;;;4.47;;
38023;SDS011;23834;48.080;11.682;2022-09-01T10:03:41;5.23;;;4.83;;
38023;SDS011;23834;48.080;11.682;2022-09-01T10:06:11;4.67;;;4.37;;
38023;SDS011;23834;48.080;11.682;2022-09-01T10:08:38;5.70;;;5.30;;
38023;SDS011;23834;48.080;11.682;2022-09-01T10:11:08;5.60;;;5.10;;
38023;SDS011;23834;48.080;11.682;2022-09-01T10:13:34;4.90;;;4.50;;
38023;SDS011;23834;48.080;11.682;2022-09-01T10:16:01;5.30;;;4.90;;
38023;SDS011;23834;48.080;11.682;2022-09-01T10:18:45;5.00;;;4.70;;
38023;SDS011;23834;48.080;11.682;2022-09-01T10:21:12;4.70;;;4.40;;
38023;SDS011;23834;48.080;11.682;2022-09-01T10:23:38;4.67;;;4.33;;
38023;SDS011;23834;48.080;11.682;2022-09-01T10:28:30;5.40;;;5.00;;
38023;SDS011;23834;48.080;11.682;2022-09-01T10:30:56;4.77;;;4.47;;
38023;SDS011;23834;48.080;11.682;2022-09-01T10:33:23;4.70;;;4.30;;
38023;SDS011;23834;48.080;11.682;2022-09-01T10:35:52;5.23;;;4.87;;
38023;SDS011;23834;48.080;11.682;2022-09-01T10:38:24;4.73;;;4.43;;
38023;SDS011;23834;48.080;11.682;2022-09-01T10:40:50;4.77;;;4.40;;
38023;SDS011;23834;48.080;11.682;2022-09-01T10:43:36;5.17;;;4.70;;
38023;SDS011;23834;48.080;11.682;2022-09-01T10:48:33;5.00;;;4.60;;
38023;SDS011;23834;48.080;11.682;2022-09-01T11:04:06;4.10;;;3.90;;
38023;SDS011;23834;48.080;11.682;2022-09-01T11:06:34;4.17;;;3.90;;
38023;SDS011;23834;48.080;11.682;2022-09-01T11:10:05;4.70;;;4.40;;
38023;SDS011;23834;48.080;11.682;2022-09-01T11:14:21;4.93;;;4.53;;
38023;SDS011;23834;48.080;11.682;2022-09-01T11:22:10;4.63;;;4.32;;
38023;SDS011;23834;48.080;11.682;2022-09-01T11:27:04;4.77;;;4.40;;
38023;SDS011;23834;48.080;11.682;2022-09-01T11:32:13;4.30;;;4.00;;
38023;SDS011;23834;48.080;11.682;2022-09-01T11:34:41;4.37;;;4.07;;
38023;SDS011;23834;48.080;11.682;2022-09-01T11:37:20;4.20;;;3.90;;
38023;SDS011;23834;48.080;11.682;2022-09-01T11:39:47;4.60;;;4.30;;
38023;SDS011;23834;48.080;11.682;2022-09-01T11:42:26;4.43;;;4.13;;
38023;SDS011;23834;48.080;11.682;2022-09-01T11:50:00;4.60;;;4.30;;
38023;SDS011;23834;48.080;11.682;2022-09-01T11:52:30;4.17;;;3.97;;
38023;SDS011;23834;48.080;11.682;2022-09-01T11:54:57;4.63;;;4.33;;
38023;SDS011;23834;48.080;11.682;2022-09-01T11:57:30;4.17;;;3.87;;
38023;SDS011;23834;48.080;11.682;2022-09-01T11:59:57;4.27;;;3.97;;
38023;SDS011;23834;48.080;11.682;2022-09-01T12:02:24;4.40;;;4.10;;
38023;SDS011;23834;48.080;11.682;2022-09-01T12:04:50;4.60;;;4.30;;
38023;SDS011;23834;48.080;11.682;2022-09-01T12:09:59;3.70;;;3.50;;
38023;SDS011;23834;48.080;11.682;2022-09-01T12:12:37;4.30;;;3.90;;
38023;SDS011;23834;48.080;11.682;2022-09-01T12:15:04;3.80;;;3.53;;
38023;SDS011;23834;48.080;11.682;2022-09-01T12:17:31;4.30;;;4.00;;
38023;SDS011;23834;48.080;11.682;2022-09-01T12:20:14;4.00;;;3.70;;
38023;SDS011;23834;48.080;11.682;2022-09-01T12:22:41;4.13;;;3.90;;
38023;SDS011;23834;48.080;11.682;2022-09-01T12:25:06;3.77;;;3.57;;
38023;SDS011;23834;48.080;11.682;2022-09-01T12:27:42;4.40;;;4.10;;
38023;SDS011;23834;48.080;11.682;2022-09-01T12:30:07;3.80;;;3.53;;
38023;SDS011;23834;48.080;11.682;2022-09-01T12:32:33;3.70;;;3.50;;
38023;SDS011;23834;48.080;11.682;2022-09-01T12:34:59;3.90;;;3.60;;
38023;SDS011;23834;48.080;11.682;2022-09-01T12:37:25;4.53;;;4.23;;
38023;SDS011;23834;48.080;11.682;2022-09-01T12:39:51;3.83;;;3.53;;
38023;SDS011;23834;48.080;11.682;2022-09-01T12:44:59;3.78;;;3.47;;
38023;SDS011;23834;48.080;11.682;2022-09-01T12:52:43;3.28;;;3.13;;
38023;SDS011;23834;48.080;11.682;2022-09-01T12:55:13;3.90;;;3.60;;
38023;SDS011;23834;48.080;11.682;2022-09-01T12:57:39;3.90;;;3.70;;
38023;SDS011;23834;48.080;11.682;2022-09-01T13:02:35;4.00;;;3.80;;
38023;SDS011;23834;48.080;11.682;2022-09-01T13:07:45;3.93;;;3.70;;
38023;SDS011;23834;48.080;11.682;2022-09-01T13:10:10;4.03;;;3.73;;
38023;SDS011;23834;48.080;11.682;2022-09-01T13:12:42;3.87;;;3.60;;
38023;SDS011;23834;48.080;11.682;2022-09-01T13:15:08;3.90;;;3.63;;
38023;SDS011;23834;48.080;11.682;2022-09-01T13:17:34;3.30;;;3.10;;
38023;SDS011;23834;48.080;11.682;2022-09-01T13:19:59;3.70;;;3.40;;
38023;SDS011;23834;48.080;11.682;2022-09-01T13:22:24;3.50;;;3.30;;
38023;SDS011;23834;48.080;11.682;2022-09-01T13:24:49;3.30;;;3.10;;
38023;SDS011;23834;48.080;11.682;2022-09-01T13:27:14;3.40;;;3.20;;
38023;SDS011;23834;48.080;11.682;2022-09-01T13:29:40;3.47;;;3.27;;
38023;SDS011;23834;48.080;11.682;2022-09-01T13:32:05;3.23;;;3.03;;
38023;SDS011;23834;48.080;11.682;2022-09-01T13:34:31;3.60;;;3.40;;
38023;SDS011;23834;48.080;11.682;2022-09-01T13:36:56;3.37;;;3.17;;
38023;SDS011;23834;48.080;11.682;2022-09-01T13:39:21;3.60;;;3.40;;
38023;SDS011;23834;48.080;11.682;2022-09-01T13:41:47;3.50;;;3.30;;
38023;SDS011;23834;48.080;11.682;2022-09-01T13:44:12;3.77;;;3.50;;
38023;SDS011;23834;48.080;11.682;2022-09-01T13:46:37;3.63;;;3.43;;
38023;SDS011;23834;48.080;11.682;2022-09-01T13:49:03;3.40;;;3.20;;
38023;SDS011;23834;48.080;11.682;2022-09-01T13:51:28;3.23;;;3.03;;
38023;SDS011;23834;48.080;11.682;2022-09-01T13:53:53;3.63;;;3.43;;
38023;SDS011;23834;48.080;11.682;2022-09-01T13:56:19;3.50;;;3.30;;
38023;SDS011;23834;48.080;11.682;2022-09-01T13:58:44;3.20;;;3.00;;
38023;SDS011;23834;48.080;11.682;2022-09-01T14:01:09;3.10;;;2.90;;
38023;SDS011;23834;48.080;11.682;2022-09-01T14:03:34;3.17;;;2.97;;
38023;SDS011;23834;48.080;11.682;2022-09-01T14:05:59;3.10;;;2.90;;
38023;SDS011;23834;48.080;11.682;2022-09-01T14:08:25;3.13;;;2.93;;
38023;SDS011;23834;48.080;11.682;2022-09-01T14:10:51;3.50;;;3.30;;
38023;SDS011;23834;48.080;11.682;2022-09-01T14:13:17;3.40;;;3.20;;
38023;SDS011;23834;48.080;11.682;2022-09-01T14:15:42;3.10;;;3.00;;
38023;SDS011;23834;48.080;11.682;2022-09-01T14:18:08;3.10;;;2.90;;
38023;SDS011;23834;48.080;11.682;2022-09-01T14:20:35;3.30;;;3.10;;
38023;SDS011;23834;48.080;11.682;2022-09-01T14:23:02;2.90;;;2.80;;
38023;SDS011;23834;48.080;11.682;2022-09-01T14:25:28;2.90;;;2.80;;
38023;SDS011;23834;48.080;11.682;2022-09-01T14:27:54;2.67;;;2.50;;
38023;SDS011;23834;48.080;11.682;2022-09-01T14:30:22;3.40;;;3.20;;
38023;SDS011;23834;48.080;11.682;2022-09-01T14:32:47;2.80;;;2.70;;
38023;SDS011;23834;48.080;11.682;2022-09-01T14:35:13;3.10;;;2.93;;
38023;SDS011;23834;48.080;11.682;2022-09-01T14:37:39;2.70;;;2.60;;
38023;SDS011;23834;48.080;11.682;2022-09-01T14:40:05;3.17;;;2.97;;
38023;SDS011;23834;48.080;11.682;2022-09-01T14:42:31;3.40;;;3.20;;
38023;SDS011;23834;48.080;11.682;2022-09-01T14:44:57;2.77;;;2.60;;
38023;SDS011;23834;48.080;11.682;2022-09-01T14:47:22;3.10;;;2.90;;
38023;SDS011;23834;48.080;11.682;2022-09-01T14:49:49;3.40;;;3.20;;
38023;SDS011;23834;48.080;11.682;2022-09-01T14:52:14;3.33;;;3.13;;
38023;SDS011;23834;48.080;11.682;2022-09-01T14:54:41;3.00;;;2.80;;
38023;SDS011;23834;48.080;11.682;2022-09-01T14:57:07;3.40;;;3.20;;
38023;SDS011;23834;48.080;11.682;2022-09-01T14:59:32;3.10;;;2.90;;
38023;SDS011;23834;48.080;11.682;2022-09-01T15:01:58;2.90;;;2.80;;
38023;SDS011;23834;48.080;11.682;2022-09-01T15:04:23;3.30;;;3.10;;
38023;SDS011;23834;48.080;11.682;2022-09-01T15:06:48;3.13;;;2.93;;
38023;SDS011;23834;48.080;11.682;2022-09-01T15:09:14;3.33;;;3.13;;
38023;SDS011;23834;48.080;11.682;2022-09-01T15:11:40;2.40;;;2.30;;
38023;SDS011;23834;48.080;11.682;2022-09-01T15:14:05;2.80;;;2.60;;
38023;SDS011;23834;48.080;11.682;2022-09-01T15:16:30;2.87;;;2.67;;
38023;SDS011;23834;48.080;11.682;2022-09-01T15:18:59;3.17;;;2.97;;
38023;SDS011;23834;48.080;11.682;2022-09-01T15:21:28;2.97;;;2.77;;
38023;SDS011;23834;48.080;11.682;2022-09-01T15:23:57;3.17;;;2.93;;
38023;SDS011;23834;48.080;11.682;2022-09-01T15:26:22;3.00;;;2.90;;
38023;SDS011;23834;48.080;11.682;2022-09-01T15:28:48;3.40;;;3.20;;
38023;SDS011;23834;48.080;11.682;2022-09-01T15:31:14;3.10;;;2.90;;
38023;SDS011;23834;48.080;11.682;2022-09-01T15:33:40;2.87;;;2.67;;
38023;SDS011;23834;48.080;11.682;2022-09-01T15:36:06;2.80;;;2.70;;
38023;SDS011;23834;48.080;11.682;2022-09-01T15:38:31;2.83;;;2.63;;
38023;SDS011;23834;48.080;11.682;2022-09-01T15:40:57;3.07;;;2.87;;
38023;SDS011;23834;48.080;11.682;2022-09-01T15:43:22;2.77;;;2.67;;
38023;SDS011;23834;48.080;11.682;2022-09-01T15:45:48;3.00;;;2.80;;
38023;SDS011;23834;48.080;11.682;2022-09-01T15:48:13;2.80;;;2.70;;